Time;durP1;ratioP1;P1;durP2;ratioP2;P2;SDS_P1;SDS_P2;PMS_P1;PMS_P2;Temp;Humidity;BMP_temperature;BMP_pressure;BME280_temperature;BME280_humidity;BME280_pressure;Samples;Min_cycle;Max_cycle;Signal;HPM_P1;HPM_P2
2023/12/31 00:00:04;;;;;;;2.30;2.10;;;;;;;3.15;100.00;96280.44;5083584;28;20213;-59
2023/12/31 00:02:30;;;;;;;2.60;2.40;;;;;;;3.11;100.00;96272.91;5082725;28;20328;-53
2023/12/31 00:04:59;;;;;;;2.40;2.20;;;;;;;3.09;100.00;96262.56;5082842;28;20285;-54
2023/12/31 00:07:26;;;;;;;2.43;2.23;;;;;;;3.10;100.00;96255.56;5082289;28;20198;-54
2023/12/31 00:09:53;;;;;;;2.73;2.53;;;;;;;3.07;100.00;96255.78;5084017;28;20206;-55
2023/12/31 00:12:20;;;;;;;2.30;2.20;;;;;;;3.09;100.00;96259.09;5085529;28;20194;-55
2023/12/31 00:14:46;;;;;;;2.80;2.60;;;;;;;3.08;100.00;96247.00;5085727;28;20309;-56
2023/12/31 00:17:14;;;;;;;3.27;2.67;;;;;;;3.06;100.00;96241.03;5084777;28;20218;-56
2023/12/31 00:19:41;;;;;;;2.90;2.70;;;;;;;3.06;100.00;96239.25;5086943;28;20542;-54
2023/12/31 00:22:09;;;;;;;2.87;2.40;;;;;;;3.03;100.00;96236.03;5084174;28;20250;-53
2023/12/31 00:24:35;;;;;;;2.57;2.47;;;;;;;3.00;100.00;96232.72;5087787;28;20200;-55
2023/12/31 00:27:02;;;;;;;2.13;2.03;;;;;;;2.92;100.00;96227.19;5086039;28;20301;-54
2023/12/31 00:29:29;;;;;;;2.97;2.40;;;;;;;2.96;100.00;96227.78;5085683;28;20207;-55
2023/12/31 00:31:56;;;;;;;2.73;2.53;;;;;;;2.94;100.00;96217.44;5084381;28;20198;-54
2023/12/31 00:34:22;;;;;;;2.80;2.60;;;;;;;2.93;100.00;96210.56;5084237;28;20252;-53
2023/12/31 00:36:50;;;;;;;3.67;2.60;;;;;;;2.89;100.00;96211.72;5082558;28;20211;-54
2023/12/31 00:39:17;;;;;;;4.60;2.70;;;;;;;2.87;100.00;96204.94;5082000;28;20198;-55
2023/12/31 00:41:44;;;;;;;3.60;2.80;;;;;;;2.85;100.00;96204.19;5082299;28;20205;-54
2023/12/31 00:44:12;;;;;;;3.17;2.87;;;;;;;2.78;100.00;96195.97;5081959;28;20216;-56
2023/12/31 00:46:39;;;;;;;3.40;3.10;;;;;;;2.75;100.00;96188.34;5082454;28;20209;-54
2023/12/31 00:49:06;;;;;;;3.40;3.10;;;;;;;2.72;100.00;96180.72;5082349;28;20202;-55
2023/12/31 00:51:32;;;;;;;4.10;3.33;;;;;;;2.71;100.00;96179.06;5082531;28;20212;-55
2023/12/31 00:53:59;;;;;;;3.03;2.83;;;;;;;2.71;100.00;96176.44;5082263;28;20212;-54
2023/12/31 00:56:27;;;;;;;2.73;2.53;;;;;;;2.72;100.00;96165.06;5084230;28;20285;-55
2023/12/31 00:58:53;;;;;;;2.40;2.30;;;;;;;2.73;100.00;96164.09;5087815;28;20611;-55
2023/12/31 01:01:20;;;;;;;3.50;2.57;;;;;;;2.69;100.00;96167.06;5087872;28;20230;-55
2023/12/31 01:03:47;;;;;;;3.10;2.90;;;;;;;2.66;100.00;96157.66;5089196;28;20199;-55
2023/12/31 01:06:13;;;;;;;2.33;2.23;;;;;;;2.66;100.00;96162.06;5087907;28;20511;-55
2023/12/31 01:08:40;;;;;;;2.30;2.10;;;;;;;2.67;100.00;96159.31;5084667;28;20290;-55
2023/12/31 01:11:07;;;;;;;2.83;2.43;;;;;;;2.71;100.00;96159.94;5083209;28;20231;-55
2023/12/31 01:13:35;;;;;;;2.40;2.20;;;;;;;2.68;100.00;96157.56;5082289;28;20353;-56
2023/12/31 01:16:01;;;;;;;2.30;2.10;;;;;;;2.69;100.00;96147.03;5082383;28;20221;-56
2023/12/31 01:18:28;;;;;;;3.83;1.90;;;;;;;2.69;100.00;96139.19;5082101;28;20301;-56
2023/12/31 01:20:54;;;;;;;1.83;1.73;;;;;;;2.70;100.00;96138.22;5082318;28;20297;-56
2023/12/31 01:23:21;;;;;;;3.37;2.10;;;;;;;2.65;100.00;96129.91;5081623;28;20202;-55
2023/12/31 01:25:47;;;;;;;2.10;1.90;;;;;;;2.69;100.00;96128.75;5082071;28;20194;-55
2023/12/31 01:28:14;;;;;;;2.30;2.10;;;;;;;2.64;100.00;96130.00;5081121;28;20206;-54
2023/12/31 01:30:42;;;;;;;2.70;2.50;;;;;;;2.59;100.00;96119.06;5083306;28;20297;-55
2023/12/31 01:33:08;;;;;;;2.17;1.83;;;;;;;2.59;100.00;96112.03;5081132;28;20210;-56
2023/12/31 01:35:35;;;;;;;2.00;1.90;;;;;;;2.56;100.00;96117.47;5083922;28;20218;-53
2023/12/31 01:38:03;;;;;;;3.33;2.33;;;;;;;2.57;100.00;96126.97;5097781;28;20233;-55
2023/12/31 01:40:29;;;;;;;2.43;2.20;;;;;;;2.47;100.00;96115.53;5097761;28;20291;-56
2023/12/31 01:42:56;;;;;;;2.63;2.47;;;;;;;2.48;100.00;96122.38;5087161;28;20308;-56
2023/12/31 01:45:23;;;;;;;2.77;2.57;;;;;;;2.49;100.00;96121.44;5081948;28;20644;-56
2023/12/31 01:47:52;;;;;;;2.33;2.20;;;;;;;2.52;100.00;96105.56;5082034;28;20648;-54
2023/12/31 01:50:20;;;;;;;2.50;2.30;;;;;;;2.54;100.00;96105.47;5081399;28;20635;-54
2023/12/31 01:52:47;;;;;;;2.60;2.40;;;;;;;2.49;100.00;96105.78;5081367;28;20213;-54
2023/12/31 01:55:15;;;;;;;2.40;2.20;;;;;;;2.46;100.00;96108.63;5082331;28;20302;-55
2023/12/31 01:57:42;;;;;;;2.47;2.27;;;;;;;2.40;100.00;96103.84;5085620;28;20607;-56
2023/12/31 02:00:10;;;;;;;1.80;1.70;;;;;;;2.37;100.00;96093.63;5087742;28;20220;-55
2023/12/31 02:02:37;;;;;;;2.30;2.10;;;;;;;2.33;100.00;96079.97;5086189;28;20233;-54
2023/12/31 02:05:06;;;;;;;2.27;2.13;;;;;;;2.32;100.00;96077.44;5086202;28;20197;-55
2023/12/31 02:07:32;;;;;;;2.20;2.10;;;;;;;2.26;100.00;96070.88;5085918;28;20627;-54
2023/12/31 02:09:59;;;;;;;2.00;1.90;;;;;;;2.27;100.00;96062.09;5085906;28;20269;-56
2023/12/31 02:12:25;;;;;;;2.23;2.10;;;;;;;2.23;100.00;96062.44;5083887;28;20288;-55
2023/12/31 02:14:52;;;;;;;2.60;2.40;;;;;;;2.25;100.00;96047.50;5081151;28;20222;-56
2023/12/31 02:17:18;;;;;;;4.47;2.57;;;;;;;2.23;100.00;96036.34;5082275;28;20202;-55
2023/12/31 02:19:45;;;;;;;3.57;2.40;;;;;;;2.23;100.00;96031.13;5080844;28;20203;-55
2023/12/31 02:22:14;;;;;;;3.33;2.53;;;;;;;2.18;100.00;96028.00;5081364;28;20232;-55
2023/12/31 02:24:50;;;;;;;5.10;2.67;;;;;;;2.11;100.00;96027.59;5080906;28;20210;-55
2023/12/31 02:27:18;;;;;;;2.73;2.53;;;;;;;2.06;100.00;96031.47;5081485;28;20213;-55
2023/12/31 02:29:46;;;;;;;2.40;2.20;;;;;;;2.06;100.00;96032.28;5080611;28;20212;-55
2023/12/31 02:32:13;;;;;;;2.27;2.17;;;;;;;2.02;100.00;96020.41;5083185;28;20360;-55
2023/12/31 02:34:44;;;;;;;2.97;2.67;;;;;;;2.03;100.00;96021.25;5084415;28;20235;-55
2023/12/31 02:37:11;;;;;;;3.07;2.87;;;;;;;2.01;100.00;96010.94;5085227;28;20206;-56
2023/12/31 02:39:37;;;;;;;1.80;1.70;;;;;;;2.07;100.00;96012.28;5084113;28;20198;-56
2023/12/31 02:42:04;;;;;;;2.70;2.30;;;;;;;2.07;100.00;95988.81;5085183;28;20221;-55
2023/12/31 02:44:32;;;;;;;2.20;2.00;;;;;;;2.06;100.00;95979.31;5084114;28;20308;-55
2023/12/31 02:46:59;;;;;;;2.10;1.87;;;;;;;2.02;100.00;95970.06;5084286;28;20225;-55
2023/12/31 02:49:25;;;;;;;2.13;2.03;;;;;;;1.99;100.00;95974.53;5083859;28;20210;-54
2023/12/31 02:51:52;;;;;;;2.40;2.20;;;;;;;1.96;100.00;95964.31;5084471;28;20195;-56
2023/12/31 02:54:18;;;;;;;2.50;2.40;;;;;;;1.95;100.00;95974.84;5084193;28;20199;-55
2023/12/31 02:56:45;;;;;;;2.87;2.67;;;;;;;1.92;100.00;95968.06;5084297;28;20230;-54
2023/12/31 02:59:12;;;;;;;2.47;2.27;;;;;;;1.92;100.00;95962.84;5084237;28;20217;-55
2023/12/31 03:01:40;;;;;;;2.73;2.40;;;;;;;1.94;100.00;95961.00;5083630;28;20222;-56
2023/12/31 03:04:10;;;;;;;2.70;2.50;;;;;;;1.93;100.00;95959.31;5083439;28;20202;-56
2023/12/31 03:06:38;;;;;;;4.60;2.77;;;;;;;1.92;100.00;95952.44;5084301;28;20194;-55
2023/12/31 03:09:06;;;;;;;3.83;2.33;;;;;;;1.88;100.00;95948.38;5083859;28;20194;-55
2023/12/31 03:11:33;;;;;;;2.20;2.10;;;;;;;1.89;100.00;95946.59;5084401;28;20214;-57
2023/12/31 03:13:59;;;;;;;2.33;2.23;;;;;;;1.86;100.00;95937.22;5083392;28;20194;-56
2023/12/31 03:16:26;;;;;;;2.30;2.20;;;;;;;1.89;100.00;95934.41;5083700;28;20227;-54
2023/12/31 03:18:54;;;;;;;2.50;2.30;;;;;;;1.89;100.00;95916.16;5084127;28;20297;-54
2023/12/31 03:21:20;;;;;;;2.90;2.70;;;;;;;1.93;100.00;95917.59;5083896;28;20212;-57
2023/12/31 03:23:47;;;;;;;2.50;2.30;;;;;;;1.93;100.00;95915.00;5083802;28;20197;-55
2023/12/31 03:26:14;;;;;;;3.17;2.97;;;;;;;1.92;100.00;95909.88;5083271;28;20194;-55
2023/12/31 03:28:41;;;;;;;3.40;3.20;;;;;;;1.87;100.00;95899.81;5083059;28;20202;-55
2023/12/31 03:31:09;;;;;;;3.20;2.80;;;;;;;1.89;100.00;95903.13;5083620;28;20201;-53
2023/12/31 03:33:36;;;;;;;3.53;3.23;;;;;;;1.88;100.00;95901.44;5083099;28;20206;-55
2023/12/31 03:36:05;;;;;;;3.30;3.10;;;;;;;1.87;100.00;95891.16;5083493;28;20230;-55
2023/12/31 03:38:33;;;;;;;3.33;3.07;;;;;;;1.86;100.00;95879.03;5083650;28;20198;-54
2023/12/31 03:40:59;;;;;;;2.90;2.70;;;;;;;1.89;100.00;95881.44;5084190;28;20198;-56
2023/12/31 03:43:26;;;;;;;3.50;3.20;;;;;;;1.95;100.00;95879.22;5083579;28;20193;-56
2023/12/31 03:45:53;;;;;;;3.20;3.00;;;;;;;1.95;100.00;95881.81;5098422;28;20283;-54
2023/12/31 03:48:19;;;;;;;3.20;2.90;;;;;;;1.91;100.00;95882.97;5104682;28;20225;-54
2023/12/31 03:50:46;;;;;;;3.73;3.33;;;;;;;1.92;100.00;95887.25;5098205;28;20270;-55
2023/12/31 03:53:14;;;;;;;3.90;3.40;;;;;;;1.93;100.00;95873.28;5084503;28;20205;-55
2023/12/31 03:55:41;;;;;;;3.40;3.17;;;;;;;1.96;100.00;95864.41;5083538;28;20235;-54
2023/12/31 03:58:07;;;;;;;4.00;3.70;;;;;;;1.98;100.00;95863.34;5083015;28;20201;-54
2023/12/31 04:00:35;;;;;;;3.57;3.27;;;;;;;1.93;100.00;95862.84;5082863;28;20636;-55
2023/12/31 04:03:02;;;;;;;4.07;3.57;;;;;;;1.90;100.00;95857.03;5083203;28;20504;-55
2023/12/31 04:05:29;;;;;;;5.03;3.87;;;;;;;1.89;100.00;95848.38;5082431;28;20200;-55
2023/12/31 04:07:56;;;;;;;3.90;3.60;;;;;;;1.94;100.00;95840.22;5082582;28;20226;-56
2023/12/31 04:10:27;;;;;;;4.10;3.80;;;;;;;1.90;100.00;95850.06;5081959;28;20202;-55
2023/12/31 04:12:53;;;;;;;4.00;3.60;;;;;;;1.93;100.00;95838.56;5082472;28;20364;-55
2023/12/31 04:15:22;;;;;;;4.20;3.90;;;;;;;1.94;100.00;95829.81;5081432;28;20734;-55
2023/12/31 04:17:49;;;;;;;5.20;4.43;;;;;;;2.00;100.00;95831.97;5082717;28;20227;-56
2023/12/31 04:20:15;;;;;;;5.60;3.80;;;;;;;2.04;100.00;95824.75;5081647;28;20714;-55
2023/12/31 04:22:42;;;;;;;5.00;4.60;;;;;;;2.07;100.00;95809.72;5083995;28;20214;-56
2023/12/31 04:25:09;;;;;;;5.07;4.57;;;;;;;2.13;100.00;95808.41;5093171;28;20208;-55
2023/12/31 04:27:40;;;;;;;5.10;4.70;;;;;;;2.09;100.00;95797.38;5095250;28;20293;-55
2023/12/31 04:30:09;;;;;;;6.83;4.83;;;;;;;2.11;100.00;95790.28;5094039;28;20194;-55
2023/12/31 04:32:35;;;;;;;5.63;4.33;;;;;;;2.16;100.00;95792.56;5095027;28;20310;-56
2023/12/31 04:35:03;;;;;;;5.70;5.20;;;;;;;2.16;100.00;95792.56;5094004;28;20225;-56
2023/12/31 04:37:30;;;;;;;5.37;4.90;;;;;;;2.15;100.00;95793.50;5094654;28;20229;-55
2023/12/31 04:39:57;;;;;;;5.20;4.43;;;;;;;2.16;100.00;95789.97;5093723;28;20283;-54
2023/12/31 04:42:24;;;;;;;5.67;5.10;;;;;;;2.18;100.00;95790.66;5095098;28;20297;-55
2023/12/31 04:44:52;;;;;;;4.77;4.37;;;;;;;2.25;100.00;95792.72;5095493;28;20297;-54
2023/12/31 04:47:19;;;;;;;5.40;4.90;;;;;;;2.19;100.00;95797.56;5095416;28;20199;-56
2023/12/31 04:49:45;;;;;;;5.47;4.97;;;;;;;2.18;100.00;95803.72;5094531;28;20208;-55
2023/12/31 04:52:12;;;;;;;5.43;4.93;;;;;;;2.16;100.00;95803.00;5096145;28;20212;-55
2023/12/31 04:54:41;;;;;;;5.20;4.70;;;;;;;2.23;100.00;95791.97;5094204;28;20305;-55
2023/12/31 04:57:09;;;;;;;5.23;4.80;;;;;;;2.21;100.00;95795.66;5094713;28;20297;-56
2023/12/31 04:59:36;;;;;;;4.80;4.40;;;;;;;2.16;100.00;95798.59;5093846;28;20270;-56
2023/12/31 05:02:04;;;;;;;5.30;4.80;;;;;;;2.16;100.00;95797.78;5094103;28;20258;-55
2023/12/31 05:04:32;;;;;;;5.50;5.00;;;;;;;2.14;100.00;95799.66;5094740;28;20217;-56
2023/12/31 05:06:59;;;;;;;5.40;4.90;;;;;;;2.11;100.00;95794.69;5093537;28;20190;-55
2023/12/31 05:09:26;;;;;;;5.67;5.17;;;;;;;2.11;100.00;95795.50;5096236;28;20233;-56
2023/12/31 05:11:52;;;;;;;5.87;5.30;;;;;;;2.12;100.00;95804.16;5091665;28;20201;-56
2023/12/31 05:14:19;;;;;;;5.00;4.60;;;;;;;2.18;100.00;95798.50;5086167;28;20210;-56
2023/12/31 05:16:46;;;;;;;5.43;4.93;;;;;;;2.16;100.00;95803.00;5081038;28;20725;-55
2023/12/31 05:19:14;;;;;;;5.03;4.60;;;;;;;2.18;100.00;95791.50;5081606;28;20209;-55
2023/12/31 05:21:40;;;;;;;5.20;4.70;;;;;;;2.21;100.00;95801.72;5082015;28;20209;-56
2023/12/31 05:24:08;;;;;;;4.87;4.47;;;;;;;2.21;100.00;95803.47;5081302;28;20650;-56
2023/12/31 05:26:34;;;;;;;5.27;4.77;;;;;;;2.18;100.00;95801.94;5081414;28;20194;-56
2023/12/31 05:29:02;;;;;;;5.40;5.00;;;;;;;2.17;100.00;95807.25;5082029;28;20197;-55
2023/12/31 05:31:28;;;;;;;5.97;4.87;;;;;;;2.13;100.00;95809.25;5087226;28;20265;-56
2023/12/31 05:33:55;;;;;;;6.23;5.00;;;;;;;2.05;100.00;95816.00;5088388;28;20649;-55
2023/12/31 05:36:25;;;;;;;5.37;4.87;;;;;;;2.03;100.00;95825.69;5087249;28;20234;-55
2023/12/31 05:38:52;;;;;;;6.63;5.03;;;;;;;2.08;100.00;95834.84;5084219;28;20627;-54
2023/12/31 05:41:19;;;;;;;5.70;4.80;;;;;;;2.04;100.00;95829.97;5084193;28;20202;-56
2023/12/31 05:43:48;;;;;;;5.47;5.07;;;;;;;2.04;100.00;95837.78;5081509;28;20201;-56
2023/12/31 05:46:15;;;;;;;6.13;5.53;;;;;;;2.33;100.00;95847.78;5081030;28;20199;-55
2023/12/31 05:48:41;;;;;;;5.53;5.03;;;;;;;2.30;100.00;95847.97;5080750;28;20190;-54
2023/12/31 05:51:08;;;;;;;6.30;5.63;;;;;;;2.49;100.00;95847.47;5081353;28;20312;-55
2023/12/31 05:53:36;;;;;;;6.20;5.70;;;;;;;2.65;100.00;95857.59;5080596;28;20206;-56
2023/12/31 05:56:02;;;;;;;4.57;4.20;;;;;;;2.87;100.00;95861.09;5086864;28;20268;-55
2023/12/31 05:58:29;;;;;;;6.13;5.23;;;;;;;2.91;100.00;95869.53;5098009;28;20201;-55
2023/12/31 06:00:56;;;;;;;6.87;6.27;;;;;;;2.83;100.00;95872.72;5091342;28;20268;-56
2023/12/31 06:03:22;;;;;;;6.90;6.30;;;;;;;2.67;100.00;95866.97;5083140;28;20672;-55
2023/12/31 06:05:49;;;;;;;6.97;6.37;;;;;;;2.66;100.00;95875.75;5087730;28;20201;-54
2023/12/31 06:08:16;;;;;;;7.57;6.60;;;;;;;2.48;100.00;95887.53;5088899;28;20213;-55
2023/12/31 06:10:44;;;;;;;6.57;6.00;;;;;;;2.40;100.00;95892.50;5085851;28;20618;-55
2023/12/31 06:13:10;;;;;;;6.70;6.10;;;;;;;2.32;100.00;95897.44;5085147;28;20209;-55
2023/12/31 06:15:37;;;;;;;6.53;6.00;;;;;;;2.23;100.00;95903.34;5084842;28;20208;-55
2023/12/31 06:18:05;;;;;;;6.50;5.93;;;;;;;2.17;100.00;95914.19;5084482;28;20225;-54
2023/12/31 06:20:32;;;;;;;6.03;5.50;;;;;;;2.16;100.00;95910.75;5084118;28;20212;-55
2023/12/31 06:22:58;;;;;;;6.23;5.73;;;;;;;2.16;100.00;95912.53;5083505;28;20278;-55
2023/12/31 06:25:25;;;;;;;6.50;5.90;;;;;;;2.14;100.00;95914.41;5084201;28;20210;-56
2023/12/31 06:27:54;;;;;;;6.50;5.90;;;;;;;2.08;100.00;95912.25;5084318;28;20293;-54
2023/12/31 06:30:22;;;;;;;6.87;6.17;;;;;;;2.16;100.00;95917.75;5083865;28;20201;-56
2023/12/31 06:32:50;;;;;;;6.63;6.03;;;;;;;2.20;100.00;95912.19;5084986;28;20565;-54
2023/12/31 06:35:18;;;;;;;6.63;6.03;;;;;;;2.20;100.00;95913.97;5084431;28;20293;-53
2023/12/31 06:37:45;;;;;;;7.20;6.40;;;;;;;2.24;100.00;95915.41;5084688;28;20218;-56
2023/12/31 06:40:13;;;;;;;6.93;6.27;;;;;;;2.23;100.00;95913.75;5084322;28;20205;-55
2023/12/31 06:42:40;;;;;;;6.10;5.53;;;;;;;2.19;100.00;95912.31;5084200;28;20208;-55
2023/12/31 06:45:09;;;;;;;6.60;6.00;;;;;;;2.17;100.00;95911.56;5084497;28;20216;-55
2023/12/31 06:47:35;;;;;;;6.63;6.13;;;;;;;2.11;100.00;95909.41;5084012;28;20201;-54
2023/12/31 06:50:02;;;;;;;6.40;5.90;;;;;;;2.17;100.00;95908.97;5083920;28;20206;-54
2023/12/31 06:52:29;;;;;;;6.67;6.10;;;;;;;2.22;100.00;95919.91;5083151;28;20205;-55
2023/12/31 06:54:55;;;;;;;6.67;6.07;;;;;;;2.17;100.00;95924.63;5083478;28;20333;-55
2023/12/31 06:57:22;;;;;;;6.40;5.80;;;;;;;2.18;100.00;95911.47;5083919;28;20559;-55
2023/12/31 06:59:50;;;;;;;6.63;6.03;;;;;;;2.25;100.00;95901.44;5084270;28;20216;-55
2023/12/31 07:02:19;;;;;;;6.47;5.77;;;;;;;2.20;100.00;95912.19;5083229;28;20249;-56
2023/12/31 07:04:45;;;;;;;8.40;6.20;;;;;;;2.22;100.00;95912.09;5083325;28;20582;-56
2023/12/31 07:07:12;;;;;;;6.87;6.20;;;;;;;2.20;100.00;95913.97;5083177;28;20601;-56
2023/12/31 07:09:38;;;;;;;7.13;6.43;;;;;;;2.17;100.00;95916.78;5083205;28;20377;-55
2023/12/31 07:12:06;;;;;;;6.73;6.13;;;;;;;2.16;100.00;95912.53;5083163;28;20202;-56
2023/12/31 07:14:32;;;;;;;6.23;5.73;;;;;;;2.11;100.00;95915.47;5082281;28;20534;-55
2023/12/31 07:16:59;;;;;;;6.70;6.10;;;;;;;2.05;100.00;95917.69;5082317;28;20222;-55
2023/12/31 07:19:27;;;;;;;6.40;5.80;;;;;;;2.10;100.00;95918.16;5082236;28;20234;-55
2023/12/31 07:21:54;;;;;;;6.53;5.93;;;;;;;2.12;100.00;95917.16;5082873;28;20233;-55
2023/12/31 07:24:21;;;;;;;6.70;5.60;;;;;;;2.14;100.00;95919.63;5083015;28;20225;-55
2023/12/31 07:26:47;;;;;;;6.20;5.70;;;;;;;2.19;100.00;95923.59;5082750;28;20206;-55
2023/12/31 07:29:14;;;;;;;6.93;6.23;;;;;;;2.18;100.00;95915.84;5082575;28;20635;-56
2023/12/31 07:31:42;;;;;;;6.93;6.30;;;;;;;2.20;100.00;95917.41;5083157;28;20210;-56
2023/12/31 07:34:08;;;;;;;7.57;6.80;;;;;;;2.21;100.00;95916.47;5082332;28;20199;-55
2023/12/31 07:36:36;;;;;;;7.40;6.60;;;;;;;2.23;100.00;95903.34;5081757;28;20222;-56
2023/12/31 07:39:03;;;;;;;6.90;6.23;;;;;;;2.32;100.00;95903.50;5082582;28;20584;-56
2023/12/31 07:41:30;;;;;;;6.93;6.33;;;;;;;2.39;100.00;95911.69;5082796;28;20202;-56
2023/12/31 07:43:56;;;;;;;7.30;6.60;;;;;;;2.41;100.00;95909.78;5082919;28;20210;-54
2023/12/31 07:46:23;;;;;;;6.90;6.20;;;;;;;2.42;100.00;95908.88;5082908;28;20293;-56
2023/12/31 07:48:51;;;;;;;7.07;6.47;;;;;;;2.42;100.00;95895.81;5083064;28;20209;-55
2023/12/31 07:51:18;;;;;;;7.00;6.33;;;;;;;2.47;100.00;95904.16;5083174;28;20198;-55
2023/12/31 07:53:46;;;;;;;7.10;6.40;;;;;;;2.51;100.00;95903.81;5083333;28;20208;-55
2023/12/31 07:56:13;;;;;;;6.93;6.33;;;;;;;2.54;100.00;95902.75;5083559;28;20203;-54
2023/12/31 07:58:39;;;;;;;7.87;7.03;;;;;;;2.60;100.00;95898.84;5082680;28;21311;-56
2023/12/31 08:01:06;;;;;;;6.90;6.30;;;;;;;2.66;100.00;95901.84;5082237;28;20690;-55
2023/12/31 08:03:32;;;;;;;6.50;5.90;;;;;;;2.75;100.00;95895.97;5084887;28;20210;-55
2023/12/31 08:05:59;;;;;;;7.20;6.53;;;;;;;2.79;100.00;95901.78;5093745;28;20516;-57
2023/12/31 08:08:26;;;;;;;7.27;6.57;;;;;;;2.78;100.00;95887.91;5088326;28;20289;-55
2023/12/31 08:10:54;;;;;;;7.27;6.57;;;;;;;2.86;100.00;95888.16;5084946;28;20220;-56
2023/12/31 08:13:21;;;;;;;7.13;6.43;;;;;;;2.92;100.00;95892.09;5085371;28;20206;-55
2023/12/31 08:15:48;;;;;;;8.33;7.53;;;;;;;2.93;100.00;95899.81;5085081;28;20208;-54
2023/12/31 08:18:15;;;;;;;8.83;8.03;;;;;;;2.96;100.00;95901.34;5085529;28;20240;-55
2023/12/31 08:20:42;;;;;;;8.03;7.27;;;;;;;3.04;100.00;95900.78;5084559;28;20209;-54
2023/12/31 08:23:10;;;;;;;8.10;7.33;;;;;;;3.11;100.00;95891.53;5083198;28;20203;-56
2023/12/31 08:25:36;;;;;;;8.30;7.03;;;;;;;3.17;100.00;95902.34;5083840;28;20198;-56
2023/12/31 08:28:07;;;;;;;7.87;7.07;;;;;;;3.19;100.00;95894.41;5081548;28;20203;-55
2023/12/31 08:30:34;;;;;;;7.53;6.77;;;;;;;3.19;100.00;95895.22;5082060;28;20205;-54
2023/12/31 08:33:01;;;;;;;7.43;6.73;;;;;;;3.25;100.00;95892.16;5082023;28;20202;-58
2023/12/31 08:35:27;;;;;;;7.57;6.93;;;;;;;3.34;100.00;95895.84;5082874;28;20205;-54
2023/12/31 08:37:54;;;;;;;8.40;7.50;;;;;;;3.36;100.00;95884.34;5089350;28;20734;-53
2023/12/31 08:40:21;;;;;;;8.27;7.47;;;;;;;3.47;100.00;95886.13;5088634;28;20268;-54
2023/12/31 08:42:48;;;;;;;7.47;6.80;;;;;;;3.53;100.00;95877.81;5087405;28;20209;-53
2023/12/31 08:45:16;;;;;;;8.43;7.63;;;;;;;3.58;100.00;95864.38;5088822;28;20273;-55
2023/12/31 08:47:42;;;;;;;7.80;7.00;;;;;;;3.67;100.00;95868.88;5085769;28;20226;-54
2023/12/31 08:50:11;;;;;;;7.80;7.10;;;;;;;3.74;100.00;95868.28;5083102;28;20198;-54
2023/12/31 08:52:40;;;;;;;8.30;7.50;;;;;;;3.78;100.00;95861.88;5083393;28;20221;-53
2023/12/31 08:55:07;;;;;;;8.13;7.43;;;;;;;3.88;100.00;95848.88;5084381;28;20234;-54
2023/12/31 08:57:34;;;;;;;9.03;7.40;;;;;;;3.96;100.00;95844.72;5083690;28;20558;-54
2023/12/31 09:00:02;;;;;;;7.93;7.13;;;;;;;4.03;100.00;95841.59;5082674;28;20519;-55
2023/12/31 09:02:30;;;;;;;8.07;7.20;;;;;;;4.06;100.00;95826.50;5081940;28;20225;-54
2023/12/31 09:04:57;;;;;;;8.10;7.30;;;;;;;4.20;100.00;95825.38;5082909;28;20271;-54
2023/12/31 09:07:23;;;;;;;7.67;6.70;;;;;;;4.35;100.00;95821.53;5082796;28;20204;-54
2023/12/31 09:09:50;;;;;;;7.30;6.60;;;;;;;4.53;100.00;95830.47;5082581;28;20205;-55
2023/12/31 09:12:16;;;;;;;8.03;7.23;;;;;;;4.73;100.00;95824.44;5081963;28;20207;-55
2023/12/31 09:14:43;;;;;;;7.73;6.60;;;;;;;4.86;100.00;95829.47;5080631;28;20206;-55
2023/12/31 09:17:10;;;;;;;8.00;7.20;;;;;;;5.09;100.00;95830.16;5083252;28;20230;-53
2023/12/31 09:19:40;;;;;;;6.53;5.90;;;;;;;5.20;100.00;95827.47;5081145;28;20293;-57
2023/12/31 09:22:07;;;;;;;6.43;5.83;;;;;;;5.41;100.00;95825.63;5081947;28;20281;-55
2023/12/31 09:24:36;;;;;;;6.07;5.47;;;;;;;5.57;100.00;95825.97;5082234;28;20209;-56
2023/12/31 09:27:07;;;;;;;7.10;6.00;;;;;;;5.68;100.00;95825.88;5082367;28;20252;-56
2023/12/31 09:29:34;;;;;;;7.13;5.90;;;;;;;5.80;100.00;95821.34;5081761;28;20194;-56
2023/12/31 09:32:00;;;;;;;6.37;5.73;;;;;;;5.98;100.00;95819.78;5081744;28;20210;-56
2023/12/31 09:34:27;;;;;;;6.50;5.30;;;;;;;6.08;100.00;95819.78;5082198;28;20208;-57
2023/12/31 09:36:57;;;;;;;6.83;5.50;;;;;;;6.21;100.00;95815.09;5082100;28;20220;-56
2023/12/31 09:39:25;;;;;;;7.20;5.80;;;;;;;6.28;100.00;95806.53;5082099;28;20196;-56
2023/12/31 09:41:53;;;;;;;6.13;5.63;;;;;;;6.33;100.00;95804.34;5086340;28;20734;-56
2023/12/31 09:44:20;;;;;;;5.20;4.70;;;;;;;6.35;100.00;95801.56;5085739;28;20212;-56
2023/12/31 09:46:55;;;;;;;5.70;5.20;;;;;;;6.43;100.00;95807.81;5085512;28;20619;-57
2023/12/31 09:49:22;;;;;;;5.50;5.00;;;;;;;6.53;100.00;95815.66;5085103;28;20239;-57
2023/12/31 09:51:49;;;;;;;5.23;4.73;;;;;;;6.58;100.00;95808.22;5085695;28;20206;-56
2023/12/31 09:54:18;;;;;;;6.00;5.30;;;;;;;6.70;100.00;95824.66;5085783;28;20202;-56
2023/12/31 09:56:46;;;;;;;4.87;4.47;;;;;;;6.74;100.00;95818.97;5086284;28;20284;-57
2023/12/31 09:59:13;;;;;;;6.57;4.77;;;;;;;6.87;100.00;95831.84;5084667;28;20232;-57
2023/12/31 10:01:42;;;;;;;5.30;4.80;;;;;;;6.93;100.00;95826.03;5085113;28;20230;-57
2023/12/31 10:04:10;;;;;;;5.77;5.27;;;;;;;7.10;100.00;95804.25;5085784;28;20301;-56
2023/12/31 10:06:37;;;;;;;5.90;5.30;;;;;;;7.21;100.00;95811.97;5086186;28;20280;-56
2023/12/31 10:09:14;;;;;;;7.00;5.50;;;;;;;7.43;100.00;95816.91;5085312;28;20190;-57
2023/12/31 10:11:42;;;;;;;6.20;5.43;;;;;;;7.52;100.00;95812.56;5088214;28;20201;-57
2023/12/31 10:14:10;;;;;;;6.47;5.10;;;;;;;7.68;100.00;95814.59;5096732;28;20225;-57
2023/12/31 10:16:43;;;;;;;5.40;4.90;;;;;;;8.11;100.00;95806.03;5100844;28;20259;-57
2023/12/31 10:19:10;;;;;;;5.87;5.37;;;;;;;8.36;100.00;95779.00;5085286;28;20233;-57
2023/12/31 10:21:37;;;;;;;4.57;4.17;;;;;;;8.75;100.00;95777.69;5084528;28;20619;-57
2023/12/31 10:24:03;;;;;;;5.27;4.77;;;;;;;8.84;100.00;95776.78;5085743;28;20228;-57
2023/12/31 10:26:30;;;;;;;4.80;4.40;;;;;;;8.59;99.71;95764.38;5085149;28;20302;-57
2023/12/31 10:28:58;;;;;;;4.47;4.17;;;;;;;8.50;100.00;95765.31;5084845;28;20292;-55
2023/12/31 10:31:25;;;;;;;5.00;4.60;;;;;;;8.74;100.00;95768.13;5083656;28;20208;-57
2023/12/31 10:33:52;;;;;;;5.50;5.00;;;;;;;8.89;100.00;95765.78;5086404;28;20213;-56
2023/12/31 10:36:21;;;;;;;5.23;4.80;;;;;;;8.71;98.11;95752.63;5093523;28;20228;-56
2023/12/31 10:38:49;;;;;;;5.77;5.07;;;;;;;8.57;98.52;95750.53;5092977;28;20221;-56
2023/12/31 10:41:20;;;;;;;6.10;5.10;;;;;;;8.75;100.00;95761.88;5091869;28;20309;-56
2023/12/31 10:43:50;;;;;;;5.20;4.70;;;;;;;8.76;98.69;95745.06;5087875;28;20232;-57
2023/12/31 10:46:19;;;;;;;5.27;4.83;;;;;;;8.75;100.00;95745.25;5088147;28;20213;-56
2023/12/31 10:48:48;;;;;;;5.57;5.07;;;;;;;8.60;97.41;95723.88;5087170;28;20843;-56
2023/12/31 10:51:21;;;;;;;6.40;5.80;;;;;;;8.57;95.59;95728.63;5085252;28;20583;-56
2023/12/31 10:53:52;;;;;;;5.90;5.33;;;;;;;8.85;100.00;95728.34;5084708;28;20201;-57
2023/12/31 10:56:19;;;;;;;5.70;5.17;;;;;;;8.85;97.77;95743.34;5084442;28;20564;-56
2023/12/31 10:58:47;;;;;;;4.97;4.57;;;;;;;8.70;96.41;95724.63;5084606;28;20218;-56
2023/12/31 11:01:13;;;;;;;4.93;4.53;;;;;;;8.72;100.00;95725.28;5085042;28;20291;-57
2023/12/31 11:03:43;;;;;;;4.87;4.23;;;;;;;8.43;97.40;95701.03;5085054;28;20595;-57
2023/12/31 11:06:12;;;;;;;4.70;3.93;;;;;;;8.51;100.00;95711.59;5095467;28;20197;-57
2023/12/31 11:08:39;;;;;;;4.50;4.10;;;;;;;8.72;100.00;95727.91;5097982;28;20202;-56
2023/12/31 11:11:06;;;;;;;5.20;4.70;;;;;;;8.63;100.00;95713.03;5099902;28;20229;-56
2023/12/31 11:13:34;;;;;;;5.20;4.70;;;;;;;8.70;100.00;95713.25;5097240;28;20368;-56
2023/12/31 11:16:03;;;;;;;6.57;4.43;;;;;;;8.74;100.00;95719.88;5100001;28;20288;-55
2023/12/31 11:18:53;;;;;;;5.73;4.80;;;;;;;8.82;100.00;95704.91;5088084;28;20316;-57
2023/12/31 11:21:38;;;;;;;4.20;3.80;;;;;;;8.61;100.00;95683.34;5084887;28;20195;-57
2023/12/31 11:24:14;;;;;;;5.53;4.00;;;;;;;8.69;100.00;95695.75;5084261;28;20209;-54
2023/12/31 11:26:42;;;;;;;4.80;4.40;;;;;;;8.64;99.47;95692.78;5084559;28;20593;-54
2023/12/31 11:29:12;;;;;;;4.30;4.00;;;;;;;8.78;95.00;95721.22;5084516;28;20205;-54
2023/12/31 11:31:41;;;;;;;4.07;3.33;;;;;;;8.74;90.84;95736.50;5084535;28;20741;-57
2023/12/31 11:34:10;;;;;;;4.07;3.67;;;;;;;8.81;90.82;95726.16;5084658;28;20212;-57